sensor_id;sensor_type;location;lat;lon;timestamp;P1;P2;P0
68116;PMS7003;54909;54.464;18.498;2023-12-14T00:01:46;8;7;4
68116;PMS7003;54909;54.464;18.498;2023-12-14T00:04:52;9;8;5
68116;PMS7003;54909;54.464;18.498;2023-12-14T00:07:53;8;8;6
68116;PMS7003;54909;54.464;18.498;2023-12-14T00:10:54;10;8;6
68116;PMS7003;54909;54.464;18.498;2023-12-14T00:14:02;10;10;8
68116;PMS7003;54909;54.464;18.498;2023-12-14T00:17:03;15;11;8
68116;PMS7003;54909;54.464;18.498;2023-12-14T00:20:05;9;9;7
68116;PMS7003;54909;54.464;18.498;2023-12-14T00:23:12;11;10;8
68116;PMS7003;54909;54.464;18.498;2023-12-14T00:26:14;14;12;9
68116;PMS7003;54909;54.464;18.498;2023-12-14T00:29:17;13;10;9
68116;PMS7003;54909;54.464;18.498;2023-12-14T00:32:23;12;11;10
68116;PMS7003;54909;54.464;18.498;2023-12-14T00:35:24;12;10;9
68116;PMS7003;54909;54.464;18.498;2023-12-14T00:38:26;14;12;10
68116;PMS7003;54909;54.464;18.498;2023-12-14T00:41:33;10;10;6
68116;PMS7003;54909;54.464;18.498;2023-12-14T00:44:34;12;11;8
68116;PMS7003;54909;54.464;18.498;2023-12-14T00:47:35;12;10;9
68116;PMS7003;54909;54.464;18.498;2023-12-14T00:50:43;13;12;9
68116;PMS7003;54909;54.464;18.498;2023-12-14T00:53:44;13;11;9
68116;PMS7003;54909;54.464;18.498;2023-12-14T00:56:45;16;13;11
68116;PMS7003;54909;54.464;18.498;2023-12-14T00:59:53;12;12;10
68116;PMS7003;54909;54.464;18.498;2023-12-14T01:02:54;12;10;9
68116;PMS7003;54909;54.464;18.498;2023-12-14T01:05:56;16;13;9
68116;PMS7003;54909;54.464;18.498;2023-12-14T01:09:02;12;11;10
68116;PMS7003;54909;54.464;18.498;2023-12-14T01:12:04;13;11;8
68116;PMS7003;54909;54.464;18.498;2023-12-14T01:15:06;12;12;10
68116;PMS7003;54909;54.464;18.498;2023-12-14T01:18:13;15;12;8
68116;PMS7003;54909;54.464;18.498;2023-12-14T01:21:14;10;10;8
68116;PMS7003;54909;54.464;18.498;2023-12-14T01:24:16;10;8;6
68116;PMS7003;54909;54.464;18.498;2023-12-14T01:27:22;10;6;5
68116;PMS7003;54909;54.464;18.498;2023-12-14T01:30:24;8;8;6
68116;PMS7003;54909;54.464;18.498;2023-12-14T01:33:25;7;7;6
68116;PMS7003;54909;54.464;18.498;2023-12-14T01:36:32;9;7;4
68116;PMS7003;54909;54.464;18.498;2023-12-14T01:39:33;6;5;4
68116;PMS7003;54909;54.464;18.498;2023-12-14T01:42:35;4;4;4
68116;PMS7003;54909;54.464;18.498;2023-12-14T01:45:41;8;4;4
68116;PMS7003;54909;54.464;18.498;2023-12-14T01:48:43;5;5;3
68116;PMS7003;54909;54.464;18.498;2023-12-14T01:51:44;5;4;4
68116;PMS7003;54909;54.464;18.498;2023-12-14T01:54:51;5;5;4
68116;PMS7003;54909;54.464;18.498;2023-12-14T01:57:52;4;3;3
68116;PMS7003;54909;54.464;18.498;2023-12-14T02:04:07;7;6;5
68116;PMS7003;54909;54.464;18.498;2023-12-14T02:07:10;4;4;3
68116;PMS7003;54909;54.464;18.498;2023-12-14T02:10:11;8;4;4
68116;PMS7003;54909;54.464;18.498;2023-12-14T02:13:13;4;4;3
68116;PMS7003;54909;54.464;18.498;2023-12-14T02:16:14;6;5;4
68116;PMS7003;54909;54.464;18.498;2023-12-14T02:19:15;5;5;4
68116;PMS7003;54909;54.464;18.498;2023-12-14T02:22:19;5;4;4
68116;PMS7003;54909;54.464;18.498;2023-12-14T02:25:21;3;3;2
68116;PMS7003;54909;54.464;18.498;2023-12-14T02:28:23;8;5;4
68116;PMS7003;54909;54.464;18.498;2023-12-14T02:31:28;4;4;3
68116;PMS7003;54909;54.464;18.498;2023-12-14T02:34:29;7;4;3
68116;PMS7003;54909;54.464;18.498;2023-12-14T02:37:31;4;4;3
68116;PMS7003;54909;54.464;18.498;2023-12-14T02:40:38;5;3;3
68116;PMS7003;54909;54.464;18.498;2023-12-14T02:43:39;3;3;3
68116;PMS7003;54909;54.464;18.498;2023-12-14T02:46:41;7;5;4
68116;PMS7003;54909;54.464;18.498;2023-12-14T02:49:47;8;6;5
68116;PMS7003;54909;54.464;18.498;2023-12-14T02:52:49;5;5;5
68116;PMS7003;54909;54.464;18.498;2023-12-14T02:55:50;8;6;5
68116;PMS7003;54909;54.464;18.498;2023-12-14T02:58:57;11;9;6
68116;PMS7003;54909;54.464;18.498;2023-12-14T03:01:58;9;7;5
68116;PMS7003;54909;54.464;18.498;2023-12-14T03:05:00;6;6;5
68116;PMS7003;54909;54.464;18.498;2023-12-14T03:08:07;13;12;6
68116;PMS7003;54909;54.464;18.498;2023-12-14T03:11:08;11;10;8
68116;PMS7003;54909;54.464;18.498;2023-12-14T03:14:09;10;8;6
68116;PMS7003;54909;54.464;18.498;2023-12-14T03:17:16;11;10;7
68116;PMS7003;54909;54.464;18.498;2023-12-14T03:20:18;10;9;7
68116;PMS7003;54909;54.464;18.498;2023-12-14T03:23:19;10;9;7
68116;PMS7003;54909;54.464;18.498;2023-12-14T03:26:26;10;10;7
68116;PMS7003;54909;54.464;18.498;2023-12-14T03:29:28;10;10;7
68116;PMS7003;54909;54.464;18.498;2023-12-14T03:32:29;9;8;6
68116;PMS7003;54909;54.464;18.498;2023-12-14T03:35:37;10;10;7
68116;PMS7003;54909;54.464;18.498;2023-12-14T03:38:38;11;10;8
68116;PMS7003;54909;54.464;18.498;2023-12-14T03:41:39;11;9;8
68116;PMS7003;54909;54.464;18.498;2023-12-14T03:44:47;11;10;7
68116;PMS7003;54909;54.464;18.498;2023-12-14T03:47:48;10;10;8
68116;PMS7003;54909;54.464;18.498;2023-12-14T03:50:49;11;9;6
68116;PMS7003;54909;54.464;18.498;2023-12-14T03:53:58;9;9;6
68116;PMS7003;54909;54.464;18.498;2023-12-14T03:56:59;9;7;5
68116;PMS7003;54909;54.464;18.498;2023-12-14T04:00:00;6;6;5
68116;PMS7003;54909;54.464;18.498;2023-12-14T04:03:07;6;6;5
68116;PMS7003;54909;54.464;18.498;2023-12-14T04:06:09;10;6;5
68116;PMS7003;54909;54.464;18.498;2023-12-14T04:09:10;4;4;3
68116;PMS7003;54909;54.464;18.498;2023-12-14T04:12:17;5;5;4
68116;PMS7003;54909;54.464;18.498;2023-12-14T04:15:18;5;4;3
68116;PMS7003;54909;54.464;18.498;2023-12-14T04:18:19;3;3;3
68116;PMS7003;54909;54.464;18.498;2023-12-14T04:21:26;4;4;3
68116;PMS7003;54909;54.464;18.498;2023-12-14T04:24:27;3;3;3
68116;PMS7003;54909;54.464;18.498;2023-12-14T04:27:30;3;3;3
68116;PMS7003;54909;54.464;18.498;2023-12-14T04:30:36;3;3;3
68116;PMS7003;54909;54.464;18.498;2023-12-14T04:33:37;3;2;2
68116;PMS7003;54909;54.464;18.498;2023-12-14T04:36:38;3;2;2
68116;PMS7003;54909;54.464;18.498;2023-12-14T04:39:45;1;1;1
68116;PMS7003;54909;54.464;18.498;2023-12-14T04:42:46;2;2;2
68116;PMS7003;54909;54.464;18.498;2023-12-14T04:45:48;1;1;1
68116;PMS7003;54909;54.464;18.498;2023-12-14T04:48:55;2;2;2
68116;PMS7003;54909;54.464;18.498;2023-12-14T04:51:56;2;2;2
68116;PMS7003;54909;54.464;18.498;2023-12-14T04:54:57;1;1;1
68116;PMS7003;54909;54.464;18.498;2023-12-14T04:58:04;1;0;0
68116;PMS7003;54909;54.464;18.498;2023-12-14T05:01:05;1;1;1
68116;PMS7003;54909;54.464;18.498;2023-12-14T05:04:07;2;1;1
68116;PMS7003;54909;54.464;18.498;2023-12-14T05:07:13;1;0;0
68116;PMS7003;54909;54.464;18.498;2023-12-14T05:10:16;2;2;1
68116;PMS7003;54909;54.464;18.498;2023-12-14T05:13:17;1;1;1
68116;PMS7003;54909;54.464;18.498;2023-12-14T05:16:23;2;2;1
68116;PMS7003;54909;54.464;18.498;2023-12-14T05:19:27;1;1;0
68116;PMS7003;54909;54.464;18.498;2023-12-14T05:22:28;2;1;0
68116;PMS7003;54909;54.464;18.498;2023-12-14T05:25:32;2;1;1
68116;PMS7003;54909;54.464;18.498;2023-12-14T05:28:33;1;1;1
68116;PMS7003;54909;54.464;18.498;2023-12-14T05:31:35;1;1;1
68116;PMS7003;54909;54.464;18.498;2023-12-14T05:34:41;2;2;1
68116;PMS7003;54909;54.464;18.498;2023-12-14T05:37:42;1;1;1
68116;PMS7003;54909;54.464;18.498;2023-12-14T05:40:44;1;1;1
68116;PMS7003;54909;54.464;18.498;2023-12-14T05:43:51;1;1;1
68116;PMS7003;54909;54.464;18.498;2023-12-14T05:46:52;3;2;1
68116;PMS7003;54909;54.464;18.498;2023-12-14T05:49:53;1;1;1
68116;PMS7003;54909;54.464;18.498;2023-12-14T05:53:00;1;1;1
68116;PMS7003;54909;54.464;18.498;2023-12-14T05:56:01;2;2;2
68116;PMS7003;54909;54.464;18.498;2023-12-14T05:59:03;1;1;1
68116;PMS7003;54909;54.464;18.498;2023-12-14T06:02:09;2;2;2
68116;PMS7003;54909;54.464;18.498;2023-12-14T06:05:11;2;2;2
68116;PMS7003;54909;54.464;18.498;2023-12-14T06:08:12;2;2;2
68116;PMS7003;54909;54.464;18.498;2023-12-14T06:11:19;2;2;1
68116;PMS7003;54909;54.464;18.498;2023-12-14T06:14:20;1;1;1
68116;PMS7003;54909;54.464;18.498;2023-12-14T06:17:22;3;3;3
68116;PMS7003;54909;54.464;18.498;2023-12-14T06:20:28;4;3;3
68116;PMS7003;54909;54.464;18.498;2023-12-14T06:23:29;3;3;2
68116;PMS7003;54909;54.464;18.498;2023-12-14T06:26:30;4;2;2
68116;PMS7003;54909;54.464;18.498;2023-12-14T06:29:38;2;2;2
68116;PMS7003;54909;54.464;18.498;2023-12-14T06:32:39;3;3;2
68116;PMS7003;54909;54.464;18.498;2023-12-14T06:35:40;3;3;2
68116;PMS7003;54909;54.464;18.498;2023-12-14T06:38:47;5;3;2
68116;PMS7003;54909;54.464;18.498;2023-12-14T06:41:51;3;3;2
68116;PMS7003;54909;54.464;18.498;2023-12-14T06:44:53;4;4;3
68116;PMS7003;54909;54.464;18.498;2023-12-14T06:47:57;4;3;2
68116;PMS7003;54909;54.464;18.498;2023-12-14T06:50:58;5;4;3
68116;PMS7003;54909;54.464;18.498;2023-12-14T06:53:59;5;3;3
68116;PMS7003;54909;54.464;18.498;2023-12-14T06:57:06;4;3;2
68116;PMS7003;54909;54.464;18.498;2023-12-14T07:00:08;4;3;2
68116;PMS7003;54909;54.464;18.498;2023-12-14T07:03:10;3;3;3
68116;PMS7003;54909;54.464;18.498;2023-12-14T07:06:16;4;4;3
68116;PMS7003;54909;54.464;18.498;2023-12-14T07:09:19;5;5;4
68116;PMS7003;54909;54.464;18.498;2023-12-14T07:12:20;4;3;3
68116;PMS7003;54909;54.464;18.498;2023-12-14T07:15:25;3;3;3
68116;PMS7003;54909;54.464;18.498;2023-12-14T07:18:26;4;3;3
68116;PMS7003;54909;54.464;18.498;2023-12-14T07:21:27;7;5;4
68116;PMS7003;54909;54.464;18.498;2023-12-14T07:24:34;4;4;3
68116;PMS7003;54909;54.464;18.498;2023-12-14T07:27:36;5;5;4
68116;PMS7003;54909;54.464;18.498;2023-12-14T07:30:37;6;6;4
68116;PMS7003;54909;54.464;18.498;2023-12-14T07:33:45;6;6;4
68116;PMS7003;54909;54.464;18.498;2023-12-14T07:36:46;13;11;7
68116;PMS7003;54909;54.464;18.498;2023-12-14T07:39:47;13;10;8
68116;PMS7003;54909;54.464;18.498;2023-12-14T07:42:54;10;9;5
68116;PMS7003;54909;54.464;18.498;2023-12-14T07:45:55;10;10;7
68116;PMS7003;54909;54.464;18.498;2023-12-14T07:48:56;7;5;4
68116;PMS7003;54909;54.464;18.498;2023-12-14T07:52:03;4;3;3
68116;PMS7003;54909;54.464;18.498;2023-12-14T07:55:05;5;4;3
68116;PMS7003;54909;54.464;18.498;2023-12-14T07:58:07;4;3;3
68116;PMS7003;54909;54.464;18.498;2023-12-14T08:01:13;3;3;3
68116;PMS7003;54909;54.464;18.498;2023-12-14T08:04:14;6;4;4
68116;PMS7003;54909;54.464;18.498;2023-12-14T08:07:15;6;6;5
68116;PMS7003;54909;54.464;18.498;2023-12-14T08:10:22;7;5;4
68116;PMS7003;54909;54.464;18.498;2023-12-14T08:13:23;6;5;4
68116;PMS7003;54909;54.464;18.498;2023-12-14T08:16:24;5;3;3
68116;PMS7003;54909;54.464;18.498;2023-12-14T08:19:31;6;5;4
68116;PMS7003;54909;54.464;18.498;2023-12-14T08:22:33;4;4;3
68116;PMS7003;54909;54.464;18.498;2023-12-14T08:25:34;3;3;2
68116;PMS7003;54909;54.464;18.498;2023-12-14T08:28:41;4;3;3
68116;PMS7003;54909;54.464;18.498;2023-12-14T08:31:43;3;2;2
68116;PMS7003;54909;54.464;18.498;2023-12-14T08:34:44;4;3;3
68116;PMS7003;54909;54.464;18.498;2023-12-14T08:37:50;4;3;2
68116;PMS7003;54909;54.464;18.498;2023-12-14T08:40:51;6;5;4
68116;PMS7003;54909;54.464;18.498;2023-12-14T08:43:53;3;3;2
68116;PMS7003;54909;54.464;18.498;2023-12-14T08:46:59;4;3;3
68116;PMS7003;54909;54.464;18.498;2023-12-14T08:50:02;4;4;3
68116;PMS7003;54909;54.464;18.498;2023-12-14T08:53:05;4;3;3
68116;PMS7003;54909;54.464;18.498;2023-12-14T08:56:09;3;3;2
68116;PMS7003;54909;54.464;18.498;2023-12-14T08:59:10;2;2;2
68116;PMS7003;54909;54.464;18.498;2023-12-14T09:02:11;2;2;2
68116;PMS7003;54909;54.464;18.498;2023-12-14T09:05:18;3;2;2
68116;PMS7003;54909;54.464;18.498;2023-12-14T09:08:21;3;2;2
68116;PMS7003;54909;54.464;18.498;2023-12-14T09:11:22;2;2;2
68116;PMS7003;54909;54.464;18.498;2023-12-14T09:14:27;2;2;2
68116;PMS7003;54909;54.464;18.498;2023-12-14T09:17:30;3;2;2
68116;PMS7003;54909;54.464;18.498;2023-12-14T09:20:34;4;3;3
68116;PMS7003;54909;54.464;18.498;2023-12-14T09:23:40;2;2;2
68116;PMS7003;54909;54.464;18.498;2023-12-14T09:26:41;4;4;3
68116;PMS7003;54909;54.464;18.498;2023-12-14T09:29:43;3;2;2
68116;PMS7003;54909;54.464;18.498;2023-12-14T09:32:46;2;2;2
68116;PMS7003;54909;54.464;18.498;2023-12-14T09:35:47;3;3;3
68116;PMS7003;54909;54.464;18.498;2023-12-14T09:38:49;2;2;2
68116;PMS7003;54909;54.464;18.498;2023-12-14T09:45:06;4;2;2
68116;PMS7003;54909;54.464;18.498;2023-12-14T09:48:09;4;4;4
68116;PMS7003;54909;54.464;18.498;2023-12-14T09:51:13;2;2;2
68116;PMS7003;54909;54.464;18.498;2023-12-14T09:54:14;4;3;2
68116;PMS7003;54909;54.464;18.498;2023-12-14T09:57:15;4;3;3
68116;PMS7003;54909;54.464;18.498;2023-12-14T10:03:39;6;5;4
68116;PMS7003;54909;54.464;18.498;2023-12-14T10:06:41;2;2;2
68116;PMS7003;54909;54.464;18.498;2023-12-14T10:09:43;5;5;5
68116;PMS7003;54909;54.464;18.498;2023-12-14T10:12:53;4;3;3
68116;PMS7003;54909;54.464;18.498;2023-12-14T10:15:55;8;6;5
68116;PMS7003;54909;54.464;18.498;2023-12-14T10:18:56;14;12;10
68116;PMS7003;54909;54.464;18.498;2023-12-14T10:21:59;6;4;4
68116;PMS7003;54909;54.464;18.498;2023-12-14T10:25:03;7;6;5
68116;PMS7003;54909;54.464;18.498;2023-12-14T10:28:12;2;2;2
68116;PMS7003;54909;54.464;18.498;2023-12-14T10:31:14;2;2;2
68116;PMS7003;54909;54.464;18.498;2023-12-14T10:34:16;3;1;1
68116;PMS7003;54909;54.464;18.498;2023-12-14T10:37:17;6;5;5
68116;PMS7003;54909;54.464;18.498;2023-12-14T10:40:21;5;4;3
68116;PMS7003;54909;54.464;18.498;2023-12-14T10:43:25;2;2;2
68116;PMS7003;54909;54.464;18.498;2023-12-14T10:46:27;2;2;2
68116;PMS7003;54909;54.464;18.498;2023-12-14T10:49:29;2;2;2
68116;PMS7003;54909;54.464;18.498;2023-12-14T10:52:30;3;3;3
68116;PMS7003;54909;54.464;18.498;2023-12-14T10:55:37;2;2;1
68116;PMS7003;54909;54.464;18.498;2023-12-14T10:58:45;5;4;3
68116;PMS7003;54909;54.464;18.498;2023-12-14T11:02:06;4;4;4
68116;PMS7003;54909;54.464;18.498;2023-12-14T11:05:13;4;3;3
68116;PMS7003;54909;54.464;18.498;2023-12-14T11:08:17;3;3;2
68116;PMS7003;54909;54.464;18.498;2023-12-14T11:11:18;5;5;4
68116;PMS7003;54909;54.464;18.498;2023-12-14T11:14:22;5;4;3
68116;PMS7003;54909;54.464;18.498;2023-12-14T11:17:24;5;4;3
68116;PMS7003;54909;54.464;18.498;2023-12-14T11:20:25;4;4;3
68116;PMS7003;54909;54.464;18.498;2023-12-14T11:23:29;8;4;3
68116;PMS7003;54909;54.464;18.498;2023-12-14T11:26:32;4;4;3
68116;PMS7003;54909;54.464;18.498;2023-12-14T11:29:35;4;4;3
68116;PMS7003;54909;54.464;18.498;2023-12-14T11:32:42;5;4;3
68116;PMS7003;54909;54.464;18.498;2023-12-14T11:35:43;4;3;3
68116;PMS7003;54909;54.464;18.498;2023-12-14T11:38:44;5;5;3
68116;PMS7003;54909;54.464;18.498;2023-12-14T11:45:00;4;3;3
68116;PMS7003;54909;54.464;18.498;2023-12-14T11:48:02;5;4;3
68116;PMS7003;54909;54.464;18.498;2023-12-14T11:51:06;5;4;4
68116;PMS7003;54909;54.464;18.498;2023-12-14T11:54:07;4;4;3
68116;PMS7003;54909;54.464;18.498;2023-12-14T11:57:09;4;4;3
68116;PMS7003;54909;54.464;18.498;2023-12-14T12:00:11;6;5;5
68116;PMS7003;54909;54.464;18.498;2023-12-14T12:03:18;6;5;4
68116;PMS7003;54909;54.464;18.498;2023-12-14T12:06:22;6;5;4
68116;PMS7003;54909;54.464;18.498;2023-12-14T12:09:42;7;6;4
68116;PMS7003;54909;54.464;18.498;2023-12-14T12:12:43;4;4;3
68116;PMS7003;54909;54.464;18.498;2023-12-14T12:15:45;7;6;5
68116;PMS7003;54909;54.464;18.498;2023-12-14T12:18:48;5;5;5
68116;PMS7003;54909;54.464;18.498;2023-12-14T12:21:51;15;13;8
68116;PMS7003;54909;54.464;18.498;2023-12-14T12:24:52;52;42;25
68116;PMS7003;54909;54.464;18.498;2023-12-14T12:27:59;22;18;14
68116;PMS7003;54909;54.464;18.498;2023-12-14T12:31:02;13;13;9
68116;PMS7003;54909;54.464;18.498;2023-12-14T12:34:04;46;38;24
68116;PMS7003;54909;54.464;18.498;2023-12-14T12:37:11;36;33;20
68116;PMS7003;54909;54.464;18.498;2023-12-14T12:40:12;81;67;39
68116;PMS7003;54909;54.464;18.498;2023-12-14T12:43:19;57;44;28
68116;PMS7003;54909;54.464;18.498;2023-12-14T12:46:23;56;45;28
68116;PMS7003;54909;54.464;18.498;2023-12-14T12:49:25;60;48;29
68116;PMS7003;54909;54.464;18.498;2023-12-14T12:52:26;34;30;17
68116;PMS7003;54909;54.464;18.498;2023-12-14T12:55:36;23;19;12
68116;PMS7003;54909;54.464;18.498;2023-12-14T12:58:37;15;15;8
68116;PMS7003;54909;54.464;18.498;2023-12-14T13:01:38;11;11;9
68116;PMS7003;54909;54.464;18.498;2023-12-14T13:04:46;13;12;10
68116;PMS7003;54909;54.464;18.498;2023-12-14T13:07:47;47;39;29
68116;PMS7003;54909;54.464;18.498;2023-12-14T13:10:49;36;33;24
68116;PMS7003;54909;54.464;18.498;2023-12-14T13:13:56;36;34;22
68116;PMS7003;54909;54.464;18.498;2023-12-14T13:16:58;38;32;21
68116;PMS7003;54909;54.464;18.498;2023-12-14T13:20:00;9;8;7
68116;PMS7003;54909;54.464;18.498;2023-12-14T13:23:06;10;8;7
68116;PMS7003;54909;54.464;18.498;2023-12-14T13:26:07;10;10;7
68116;PMS7003;54909;54.464;18.498;2023-12-14T13:29:09;20;17;14
68116;PMS7003;54909;54.464;18.498;2023-12-14T13:32:17;33;30;21
68116;PMS7003;54909;54.464;18.498;2023-12-14T13:35:19;36;32;22
68116;PMS7003;54909;54.464;18.498;2023-12-14T13:38:20;31;25;21
68116;PMS7003;54909;54.464;18.498;2023-12-14T13:41:30;33;30;22
68116;PMS7003;54909;54.464;18.498;2023-12-14T13:44:34;28;24;15
68116;PMS7003;54909;54.464;18.498;2023-12-14T13:47:36;20;17;13
68116;PMS7003;54909;54.464;18.498;2023-12-14T13:50:41;26;22;16
68116;PMS7003;54909;54.464;18.498;2023-12-14T13:53:42;43;38;24
68116;PMS7003;54909;54.464;18.498;2023-12-14T13:56:44;49;39;24
68116;PMS7003;54909;54.464;18.498;2023-12-14T13:59:53;21;20;17
68116;PMS7003;54909;54.464;18.498;2023-12-14T14:02:54;24;23;16
68116;PMS7003;54909;54.464;18.498;2023-12-14T14:05:56;25;23;19
68116;PMS7003;54909;54.464;18.498;2023-12-14T14:09:04;32;30;21
68116;PMS7003;54909;54.464;18.498;2023-12-14T14:12:07;32;28;22
68116;PMS7003;54909;54.464;18.498;2023-12-14T14:15:09;37;33;24
68116;PMS7003;54909;54.464;18.498;2023-12-14T14:18:17;38;35;24
68116;PMS7003;54909;54.464;18.498;2023-12-14T14:21:19;34;32;23
68116;PMS7003;54909;54.464;18.498;2023-12-14T14:24:21;49;39;24
68116;PMS7003;54909;54.464;18.498;2023-12-14T14:27:28;57;42;28
68116;PMS7003;54909;54.464;18.498;2023-12-14T14:30:30;67;51;32
68116;PMS7003;54909;54.464;18.498;2023-12-14T14:33:31;68;52;34
68116;PMS7003;54909;54.464;18.498;2023-12-14T14:36:40;50;42;29
68116;PMS7003;54909;54.464;18.498;2023-12-14T14:39:42;58;46;31
68116;PMS7003;54909;54.464;18.498;2023-12-14T14:42:43;67;51;32
68116;PMS7003;54909;54.464;18.498;2023-12-14T14:45:53;60;49;31
68116;PMS7003;54909;54.464;18.498;2023-12-14T14:48:54;54;42;28
68116;PMS7003;54909;54.464;18.498;2023-12-14T14:51:56;56;44;29
68116;PMS7003;54909;54.464;18.498;2023-12-14T14:54:57;50;41;26
68116;PMS7003;54909;54.464;18.498;2023-12-14T14:57:58;59;46;28
68116;PMS7003;54909;54.464;18.498;2023-12-14T15:01:00;65;51;34
68116;PMS7003;54909;54.464;18.498;2023-12-14T15:04:01;51;41;26
68116;PMS7003;54909;54.464;18.498;2023-12-14T15:07:02;32;30;22
68116;PMS7003;54909;54.464;18.498;2023-12-14T15:10:07;44;36;24
68116;PMS7003;54909;54.464;18.498;2023-12-14T15:13:08;49;39;25
68116;PMS7003;54909;54.464;18.498;2023-12-14T15:16:10;57;44;28
68116;PMS7003;54909;54.464;18.498;2023-12-14T15:19:20;49;40;25
68116;PMS7003;54909;54.464;18.498;2023-12-14T15:22:22;51;40;27
68116;PMS7003;54909;54.464;18.498;2023-12-14T15:25:23;60;44;28
68116;PMS7003;54909;54.464;18.498;2023-12-14T15:28:31;58;46;29
68116;PMS7003;54909;54.464;18.498;2023-12-14T15:31:33;59;44;30
68116;PMS7003;54909;54.464;18.498;2023-12-14T15:34:34;73;55;36
68116;PMS7003;54909;54.464;18.498;2023-12-14T15:37:44;61;48;29
68116;PMS7003;54909;54.464;18.498;2023-12-14T15:40:45;58;47;30
68116;PMS7003;54909;54.464;18.498;2023-12-14T15:43:46;63;50;32
68116;PMS7003;54909;54.464;18.498;2023-12-14T15:46:47;61;48;30
68116;PMS7003;54909;54.464;18.498;2023-12-14T15:49:49;63;51;31
68116;PMS7003;54909;54.464;18.498;2023-12-14T15:52:50;62;49;30
68116;PMS7003;54909;54.464;18.498;2023-12-14T15:55:51;63;49;31
68116;PMS7003;54909;54.464;18.498;2023-12-14T15:58:52;73;56;36
68116;PMS7003;54909;54.464;18.498;2023-12-14T16:01:57;71;54;35
68116;PMS7003;54909;54.464;18.498;2023-12-14T16:04:59;70;54;35
68116;PMS7003;54909;54.464;18.498;2023-12-14T16:08:00;72;56;38
68116;PMS7003;54909;54.464;18.498;2023-12-14T16:11:07;74;58;37
68116;PMS7003;54909;54.464;18.498;2023-12-14T16:14:09;67;51;33
68116;PMS7003;54909;54.464;18.498;2023-12-14T16:17:10;59;48;31
68116;PMS7003;54909;54.464;18.498;2023-12-14T16:20:11;59;48;31
68116;PMS7003;54909;54.464;18.498;2023-12-14T16:23:13;55;44;28
68116;PMS7003;54909;54.464;18.498;2023-12-14T16:26:14;54;41;29
68116;PMS7003;54909;54.464;18.498;2023-12-14T16:29:15;57;43;30
68116;PMS7003;54909;54.464;18.498;2023-12-14T16:32:16;65;49;32
68116;PMS7003;54909;54.464;18.498;2023-12-14T16:35:23;64;51;33
68116;PMS7003;54909;54.464;18.498;2023-12-14T16:38:25;61;49;33
68116;PMS7003;54909;54.464;18.498;2023-12-14T16:41:26;68;52;34
68116;PMS7003;54909;54.464;18.498;2023-12-14T16:44:36;69;53;35
68116;PMS7003;54909;54.464;18.498;2023-12-14T16:47:39;70;54;35
68116;PMS7003;54909;54.464;18.498;2023-12-14T16:50:42;66;52;34
68116;PMS7003;54909;54.464;18.498;2023-12-14T16:53:48;70;51;30
68116;PMS7003;54909;54.464;18.498;2023-12-14T16:56:49;57;45;29
68116;PMS7003;54909;54.464;18.498;2023-12-14T16:59:51;57;46;28
68116;PMS7003;54909;54.464;18.498;2023-12-14T17:03:02;49;40;25
68116;PMS7003;54909;54.464;18.498;2023-12-14T17:06:05;44;35;20
68116;PMS7003;54909;54.464;18.498;2023-12-14T17:09:13;34;30;19
68116;PMS7003;54909;54.464;18.498;2023-12-14T17:12:15;30;29;21
68116;PMS7003;54909;54.464;18.498;2023-12-14T17:15:16;28;26;18
68116;PMS7003;54909;54.464;18.498;2023-12-14T17:18:17;25;23;16
68116;PMS7003;54909;54.464;18.498;2023-12-14T17:21:25;18;15;12
68116;PMS7003;54909;54.464;18.498;2023-12-14T17:24:27;26;21;16
68116;PMS7003;54909;54.464;18.498;2023-12-14T17:27:31;22;18;11
68116;PMS7003;54909;54.464;18.498;2023-12-14T17:30:35;15;12;9
68116;PMS7003;54909;54.464;18.498;2023-12-14T17:33:38;14;12;10
68116;PMS7003;54909;54.464;18.498;2023-12-14T17:36:39;18;16;10
68116;PMS7003;54909;54.464;18.498;2023-12-14T17:39:45;15;15;12
68116;PMS7003;54909;54.464;18.498;2023-12-14T17:42:46;17;13;10
68116;PMS7003;54909;54.464;18.498;2023-12-14T17:45:48;23;22;16
68116;PMS7003;54909;54.464;18.498;2023-12-14T17:48:56;22;21;18
68116;PMS7003;54909;54.464;18.498;2023-12-14T17:51:58;38;35;24
68116;PMS7003;54909;54.464;18.498;2023-12-14T17:54:59;20;17;13
68116;PMS7003;54909;54.464;18.498;2023-12-14T17:58:07;41;35;21
68116;PMS7003;54909;54.464;18.498;2023-12-14T18:01:08;58;43;27
68116;PMS7003;54909;54.464;18.498;2023-12-14T18:04:09;33;31;21
68116;PMS7003;54909;54.464;18.498;2023-12-14T18:07:20;29;24;18
68116;PMS7003;54909;54.464;18.498;2023-12-14T18:10:21;42;36;21
68116;PMS7003;54909;54.464;18.498;2023-12-14T18:13:23;19;17;13
68116;PMS7003;54909;54.464;18.498;2023-12-14T18:16:31;32;28;19
68116;PMS7003;54909;54.464;18.498;2023-12-14T18:19:32;33;31;21
68116;PMS7003;54909;54.464;18.498;2023-12-14T18:22:34;30;27;20
68116;PMS7003;54909;54.464;18.498;2023-12-14T18:25:42;29;24;18
68116;PMS7003;54909;54.464;18.498;2023-12-14T18:28:46;29;28;19
68116;PMS7003;54909;54.464;18.498;2023-12-14T18:31:48;43;35;20
68116;PMS7003;54909;54.464;18.498;2023-12-14T18:34:55;34;33;21
68116;PMS7003;54909;54.464;18.498;2023-12-14T18:37:56;38;32;21
68116;PMS7003;54909;54.464;18.498;2023-12-14T18:40:59;39;34;23
68116;PMS7003;54909;54.464;18.498;2023-12-14T18:44:08;48;36;23
68116;PMS7003;54909;54.464;18.498;2023-12-14T18:47:10;43;35;22
68116;PMS7003;54909;54.464;18.498;2023-12-14T18:50:11;36;31;22
68116;PMS7003;54909;54.464;18.498;2023-12-14T18:53:20;41;34;21
68116;PMS7003;54909;54.464;18.498;2023-12-14T18:56:21;39;34;21
68116;PMS7003;54909;54.464;18.498;2023-12-14T18:59:22;38;34;21
68116;PMS7003;54909;54.464;18.498;2023-12-14T19:02:32;41;34;21
68116;PMS7003;54909;54.464;18.498;2023-12-14T19:05:38;44;36;24
68116;PMS7003;54909;54.464;18.498;2023-12-14T19:08:40;54;43;29
68116;PMS7003;54909;54.464;18.498;2023-12-14T19:11:46;60;46;30
68116;PMS7003;54909;54.464;18.498;2023-12-14T19:14:47;57;47;30
68116;PMS7003;54909;54.464;18.498;2023-12-14T19:17:49;54;42;29
68116;PMS7003;54909;54.464;18.498;2023-12-14T19:20:50;55;44;30
68116;PMS7003;54909;54.464;18.498;2023-12-14T19:23:51;71;55;35
68116;PMS7003;54909;54.464;18.498;2023-12-14T19:26:53;73;55;35
68116;PMS7003;54909;54.464;18.498;2023-12-14T19:29:54;69;52;32
68116;PMS7003;54909;54.464;18.498;2023-12-14T19:32:57;64;50;32
68116;PMS7003;54909;54.464;18.498;2023-12-14T19:36:00;58;46;29
68116;PMS7003;54909;54.464;18.498;2023-12-14T19:39:01;52;42;29
68116;PMS7003;54909;54.464;18.498;2023-12-14T19:42:04;59;47;31
68116;PMS7003;54909;54.464;18.498;2023-12-14T19:45:12;63;48;31
68116;PMS7003;54909;54.464;18.498;2023-12-14T19:48:14;55;44;28
68116;PMS7003;54909;54.464;18.498;2023-12-14T19:51:15;42;36;24
68116;PMS7003;54909;54.464;18.498;2023-12-14T19:54:23;45;37;25
68116;PMS7003;54909;54.464;18.498;2023-12-14T19:57:25;53;43;26
68116;PMS7003;54909;54.464;18.498;2023-12-14T20:00:26;43;37;23
68116;PMS7003;54909;54.464;18.498;2023-12-14T20:03:28;59;46;27